createdAt,value
2018-02-18T04:30:14.561Z,19.75
2018-02-18T04:32:43.088Z,21.52
2018-02-18T04:35:10.853Z,20.75
2018-02-18T04:37:38.716Z,21.87
2018-02-18T04:40:06.392Z,23.65
2018-02-18T04:42:34.141Z,21.98
2018-02-18T04:45:01.921Z,22.80
2018-02-18T04:47:29.552Z,24.20
2018-02-18T04:49:57.324Z,22.35
2018-02-18T04:52:25.190Z,21.95
2018-02-18T04:54:52.956Z,21.73
2018-02-18T04:57:20.646Z,20.30
2018-02-18T04:59:48.479Z,20.02
2018-02-18T05:02:16.244Z,21.02
2018-02-18T05:04:43.872Z,22.27
2018-02-18T05:07:11.665Z,20.55
2018-02-18T05:09:39.529Z,19.95
2018-02-18T05:12:07.209Z,22.45
2018-02-18T05:14:34.953Z,22.55
2018-02-18T05:17:02.596Z,20.12
2018-02-18T05:19:30.292Z,23.98
2018-02-18T05:21:58.057Z,20.60
2018-02-18T05:24:25.688Z,21.35
2018-02-18T05:26:53.461Z,21.73
2018-02-18T05:29:21.224Z,22.60
2018-02-18T05:31:49.092Z,22.10
2018-02-18T05:34:16.748Z,21.40
2018-02-18T05:36:44.428Z,22.33
2018-02-18T05:39:12.087Z,22.15
2018-02-18T05:41:39.748Z,22.70
2018-02-18T05:44:07.596Z,23.10
2018-02-18T05:46:35.358Z,22.05
2018-02-18T05:49:05.579Z,22.05
2018-02-18T05:51:33.341Z,23.10
2018-02-18T05:54:00.964Z,23.20
2018-02-18T05:58:59.604Z,23.20
2018-02-18T06:01:27.364Z,21.60
2018-02-18T06:03:54.991Z,23.02
2018-02-18T06:06:22.685Z,24.27
2018-02-18T06:08:50.344Z,23.98
2018-02-18T06:11:18.108Z,22.27
2018-02-18T06:13:45.785Z,22.62
2018-02-18T06:16:13.444Z,24.45
2018-02-18T06:18:41.192Z,23.83
2018-02-18T06:21:08.873Z,24.48
2018-02-18T06:23:36.615Z,24.20
2018-02-18T06:26:04.378Z,23.15
2018-02-18T06:28:32.057Z,24.23
2018-02-18T06:30:59.716Z,23.10
2018-02-18T06:33:27.666Z,22.75
2018-02-18T06:35:55.428Z,25.52
2018-02-18T06:38:23.113Z,24.52
2018-02-18T06:40:50.782Z,25.27
2018-02-18T06:43:18.512Z,24.90
2018-02-18T06:45:46.276Z,24.92
2018-02-18T06:48:14.057Z,25.05
2018-02-18T06:50:41.698Z,26.70
2018-02-18T06:53:09.376Z,24.20
2018-02-18T06:55:37.123Z,26.15
2018-02-18T06:58:04.805Z,24.55
2018-02-18T07:00:32.548Z,26.00
2018-02-18T07:03:00.308Z,27.20
2018-02-18T07:05:28.072Z,27.20
2018-02-18T07:07:55.834Z,27.20
2018-02-18T07:10:23.598Z,28.48
2018-02-18T07:12:51.276Z,26.65
2018-02-18T07:15:19.125Z,26.55
2018-02-18T07:17:46.787Z,25.40
2018-02-18T07:20:14.425Z,28.20
2018-02-18T07:22:42.109Z,26.90
2018-02-18T07:25:09.790Z,29.27
2018-02-18T07:27:37.527Z,29.98
2018-02-18T07:30:05.821Z,30.50
2018-02-18T07:32:33.480Z,28.42
2018-02-18T07:35:01.226Z,28.52
2018-02-18T07:37:28.988Z,27.58
2018-02-18T07:39:56.673Z,29.65
2018-02-18T07:42:24.327Z,27.42
2018-02-18T07:44:52.072Z,26.85
2018-02-18T07:47:19.752Z,26.95
2018-02-18T07:49:47.599Z,26.25
2018-02-18T07:52:15.363Z,26.00
2018-02-18T07:54:43.227Z,27.87
2018-02-18T07:57:10.905Z,26.87
2018-02-18T07:59:38.568Z,28.12
2018-02-18T08:02:06.335Z,25.05
2018-02-18T08:04:34.075Z,27.37
2018-02-18T08:07:01.734Z,24.85
2018-02-18T08:09:29.496Z,27.00
2018-02-18T08:11:57.262Z,26.67
2018-02-18T08:14:25.028Z,27.48
2018-02-18T08:16:52.888Z,27.05
2018-02-18T08:19:20.650Z,27.60
2018-02-18T08:21:48.413Z,27.90
2018-02-18T08:24:16.278Z,27.05
2018-02-18T08:26:43.913Z,26.75
2018-02-18T08:29:11.701Z,29.30
2018-02-18T08:31:39.385Z,27.80
2018-02-18T08:34:07.028Z,24.80
2018-02-18T08:36:34.804Z,26.80
2018-02-18T08:39:02.550Z,28.42
2018-02-18T08:41:30.824Z,26.45
2018-02-18T08:43:58.587Z,27.65
2018-02-18T08:46:26.229Z,25.73
2018-02-18T08:48:53.906Z,26.87
2018-02-18T08:51:21.546Z,26.55
2018-02-18T08:53:49.283Z,27.40
2018-02-18T08:56:17.817Z,26.70
2018-02-18T08:58:45.450Z,25.15
2018-02-18T09:01:13.077Z,24.65
2018-02-18T09:03:41.493Z,26.35
2018-02-18T09:06:09.176Z,26.90
2018-02-18T09:08:36.805Z,28.30
2018-02-18T09:11:04.480Z,28.27
2018-02-18T09:13:32.119Z,26.83
2018-02-18T09:15:59.765Z,26.65
2018-02-18T09:18:28.182Z,26.98
2018-02-18T09:20:55.853Z,25.17
2018-02-18T09:23:23.482Z,25.60
2018-02-18T09:25:51.253Z,24.50
2018-02-18T09:28:18.936Z,25.27
2018-02-18T09:30:46.573Z,24.08
2018-02-18T09:33:14.209Z,23.85
2018-02-18T09:35:42.644Z,25.48
2018-02-18T09:38:10.277Z,21.62
2018-02-18T09:40:37.959Z,24.90
2018-02-18T09:43:05.613Z,23.17
2018-02-18T09:45:33.240Z,24.25
2018-02-18T09:48:00.917Z,23.95
2018-02-18T09:50:28.576Z,22.50
2018-02-18T09:52:56.205Z,25.33
2018-02-18T09:55:24.684Z,25.70
2018-02-18T09:57:53.108Z,25.45
2018-02-18T10:00:20.753Z,23.25
2018-02-18T10:02:48.672Z,24.58
2018-02-18T10:05:16.337Z,23.25
2018-02-18T10:07:44.736Z,23.98
2018-02-18T10:10:12.425Z,24.48
2018-02-18T10:12:40.063Z,23.40
2018-02-18T10:15:07.704Z,22.25
2018-02-18T10:17:36.120Z,22.27
2018-02-18T10:20:03.755Z,21.75
2018-02-18T10:22:31.436Z,23.20
2018-02-18T10:24:59.109Z,23.05
2018-02-18T10:27:26.742Z,23.62
2018-02-18T10:29:54.528Z,22.48
2018-02-18T10:32:22.286Z,22.48
2018-02-18T10:34:49.934Z,21.85
2018-02-18T10:37:17.613Z,22.27
2018-02-18T10:39:45.288Z,20.98
2018-02-18T10:42:12.918Z,23.42
2018-02-18T10:44:40.781Z,21.10
2018-02-18T10:47:08.424Z,22.42
2018-02-18T10:49:36.820Z,20.10
2018-02-18T10:52:04.480Z,20.95
2018-02-18T10:54:32.120Z,20.17
2018-02-18T10:57:01.597Z,21.23
2018-02-18T10:59:29.229Z,20.25
2018-02-18T11:01:56.854Z,17.48
2018-02-18T11:04:24.515Z,18.65
2018-02-18T11:06:52.153Z,20.02
2018-02-18T11:09:20.637Z,20.30
2018-02-18T11:11:49.039Z,19.25
2018-02-18T11:14:16.753Z,30.85
2018-02-18T11:16:44.495Z,19.23
2018-02-18T11:19:12.176Z,19.17
2018-02-18T11:21:39.804Z,17.80
2018-02-18T11:24:07.476Z,20.27
2018-02-18T11:26:35.140Z,17.87
2018-02-18T11:29:02.820Z,17.30
2018-02-18T11:31:30.456Z,13.40
2018-02-18T11:33:58.114Z,17.98
2018-02-18T11:36:25.767Z,14.52
2018-02-18T11:38:53.437Z,15.85
2018-02-18T11:41:21.064Z,16.92
2018-02-18T11:43:48.717Z,16.75
2018-02-18T11:46:16.417Z,16.62
2018-02-18T11:48:44.050Z,18.15
2018-02-18T11:51:11.685Z,17.25
2018-02-18T11:53:40.109Z,16.55
2018-02-18T11:56:07.737Z,17.50
2018-02-18T11:58:40.453Z,19.80
2018-02-18T12:01:08.104Z,19.23
2018-02-18T12:03:35.735Z,18.37
2018-02-18T12:06:03.402Z,17.23
2018-02-18T12:08:31.037Z,16.50
2018-02-18T12:10:59.434Z,17.60
2018-02-18T12:13:27.109Z,18.10
2018-02-18T12:15:54.754Z,19.37
2018-02-18T12:18:22.379Z,19.35
2018-02-18T12:20:50.052Z,19.60
2018-02-18T12:23:17.691Z,20.50
2018-02-18T12:25:45.329Z,19.70
2018-02-18T12:28:12.988Z,19.55
2018-02-18T12:30:40.616Z,16.37
2018-02-18T12:33:08.304Z,19.87
2018-02-18T12:35:35.940Z,20.05
2018-02-18T12:38:03.573Z,19.12
2018-02-18T12:40:31.232Z,19.08
2018-02-18T12:42:58.930Z,18.73
2018-02-18T12:45:26.557Z,18.67
2018-02-18T12:47:54.997Z,18.12
2018-02-18T12:50:22.634Z,18.62
2018-02-18T12:52:50.269Z,20.52
2018-02-18T12:55:18.757Z,18.20
2018-02-18T12:57:46.400Z,19.10
2018-02-18T13:00:14.851Z,18.23
2018-02-18T13:02:42.544Z,18.65
2018-02-18T13:05:10.961Z,19.23
2018-02-18T13:07:38.741Z,17.45
2018-02-18T13:10:06.510Z,19.02
2018-02-18T13:12:34.188Z,19.17
2018-02-18T13:15:01.949Z,20.92
2018-02-18T13:17:30.510Z,20.80
2018-02-18T13:19:58.202Z,21.42
2018-02-18T13:22:25.853Z,18.33
2018-02-18T13:24:53.484Z,19.00
2018-02-18T13:27:21.196Z,19.05
2018-02-18T13:29:49.606Z,19.45
2018-02-18T13:32:17.240Z,18.62
2018-02-18T13:34:45.675Z,19.75
2018-02-18T13:37:13.304Z,19.42
2018-02-18T13:39:40.993Z,16.58
2018-02-18T13:42:08.624Z,17.58
2018-02-18T13:44:36.253Z,16.65
2018-02-18T13:47:04.693Z,17.60
2018-02-18T13:49:32.332Z,16.80
2018-02-18T13:51:59.961Z,17.87
2018-02-18T13:54:28.382Z,17.73
2018-02-18T13:56:56.012Z,17.87
2018-02-18T13:59:23.669Z,18.50
2018-02-18T14:01:51.307Z,19.70
2018-02-18T14:04:19.749Z,18.73
2018-02-18T14:06:47.386Z,18.15
2018-02-18T14:09:15.024Z,17.87
2018-02-18T14:11:42.692Z,18.08
2018-02-18T14:14:10.348Z,17.52
2018-02-18T14:16:38.000Z,17.60
2018-02-18T14:19:06.431Z,17.20
2018-02-18T14:21:34.069Z,16.48
2018-02-18T14:24:01.735Z,16.73
2018-02-18T14:26:29.369Z,16.17
2018-02-18T14:28:56.995Z,16.80
2018-02-18T14:31:24.665Z,15.05
2018-02-18T14:33:53.064Z,16.45
2018-02-18T14:36:20.697Z,14.80
2018-02-18T14:38:48.401Z,15.45
2018-02-18T14:41:27.785Z,14.38
2018-02-18T14:44:07.486Z,14.27
2018-02-18T14:46:46.968Z,14.10
2018-02-18T14:49:26.440Z,15.93
2018-02-18T14:52:05.929Z,14.30
2018-02-18T14:57:38.306Z,14.45
2018-02-18T15:00:07.099Z,15.30
2018-02-18T15:02:34.741Z,13.27
2018-02-18T15:05:02.431Z,14.40
2018-02-18T15:07:30.107Z,16.30
2018-02-18T15:09:57.744Z,15.05
2018-02-18T15:12:25.550Z,15.48
2018-02-18T15:14:53.229Z,17.27
2018-02-18T15:17:20.860Z,18.62
2018-02-18T15:19:49.253Z,33.05
2018-02-18T15:22:17.672Z,19.90
2018-02-18T15:24:45.303Z,16.10
2018-02-18T15:27:12.979Z,16.05
2018-02-18T15:29:40.613Z,15.55
2018-02-18T15:32:08.245Z,18.70
2018-02-18T15:34:35.898Z,15.95
2018-02-18T15:37:03.532Z,18.00
2018-02-18T15:39:31.202Z,28.92
2018-02-18T15:41:58.861Z,16.95
2018-02-18T15:44:26.626Z,16.92
2018-02-18T15:46:54.534Z,16.87
2018-02-18T15:49:22.247Z,16.62
2018-02-18T15:51:49.928Z,18.52
2018-02-18T15:54:17.604Z,14.77
2018-02-18T15:56:45.237Z,15.95
2018-02-18T15:59:12.873Z,16.10
2018-02-18T16:01:40.529Z,15.57
2018-02-18T16:04:08.188Z,14.25
2018-02-18T16:06:35.841Z,12.82
2018-02-18T16:09:03.480Z,11.45
2018-02-18T16:11:32.560Z,9.95
2018-02-18T16:14:00.232Z,11.30
2018-02-18T16:16:28.632Z,12.95
2018-02-18T16:18:56.296Z,11.20
2018-02-18T16:21:23.938Z,10.73
2018-02-18T16:23:51.572Z,11.70
2018-02-18T16:26:19.253Z,12.32
2018-02-18T16:28:47.684Z,11.90
2018-02-18T16:31:16.084Z,10.70
2018-02-18T16:33:43.767Z,10.50
2018-02-18T16:36:12.165Z,10.73
2018-02-18T16:38:39.801Z,12.40
2018-02-18T16:41:08.245Z,11.20
2018-02-18T16:43:35.881Z,11.23
2018-02-18T16:46:03.512Z,11.20
2018-02-18T16:48:31.968Z,11.65
2018-02-18T16:50:59.635Z,11.95
2018-02-18T16:53:28.049Z,11.05
2018-02-18T16:55:55.728Z,11.12
2018-02-18T16:58:23.363Z,11.75
2018-02-18T17:00:51.001Z,12.80
2018-02-18T17:03:19.475Z,12.88
2018-02-18T17:05:47.084Z,12.85
2018-02-18T17:08:14.749Z,13.25
2018-02-18T17:10:42.401Z,11.98
2018-02-18T17:13:10.032Z,12.57
2018-02-18T17:15:38.448Z,13.38
2018-02-18T17:18:06.076Z,13.13
2018-02-18T17:20:33.750Z,14.23
2018-02-18T17:23:01.384Z,16.15
2018-02-18T17:25:29.776Z,17.73
2018-02-18T17:27:57.461Z,21.27
2018-02-18T17:30:25.094Z,30.65
2018-02-18T17:32:52.733Z,26.27
2018-02-18T17:35:21.186Z,23.65
2018-02-18T17:37:48.825Z,19.40
2018-02-18T17:40:16.460Z,15.75
2018-02-18T17:42:44.113Z,13.00
2018-02-18T17:45:11.736Z,9.27
2018-02-18T17:47:39.422Z,9.10
2018-02-18T17:50:07.821Z,10.20
2018-02-18T17:52:35.449Z,10.45
2018-02-18T17:55:03.120Z,9.23
2018-02-18T17:57:31.512Z,16.02
2018-02-18T17:59:59.164Z,16.65
2018-02-18T18:02:27.584Z,20.02
2018-02-18T18:04:55.220Z,26.35
2018-02-18T18:07:22.877Z,27.40
2018-02-18T18:09:50.513Z,23.73
2018-02-18T18:12:18.957Z,17.62
2018-02-18T18:14:46.590Z,9.45
2018-02-18T18:17:14.216Z,13.93
2018-02-18T18:19:41.927Z,22.77
2018-02-18T18:22:09.561Z,25.50
2018-02-18T18:24:37.188Z,18.73
2018-02-18T18:27:05.626Z,22.83
2018-02-18T18:29:33.269Z,25.15
2018-02-18T18:32:00.909Z,22.50
2018-02-18T18:34:28.568Z,15.73
2018-02-18T18:36:56.201Z,14.52
2018-02-18T18:39:24.647Z,18.58
2018-02-18T18:41:52.277Z,17.48
2018-02-18T18:44:19.909Z,16.90
2018-02-18T18:46:48.346Z,17.73
2018-02-18T18:49:15.976Z,17.55
2018-02-18T18:51:43.636Z,19.62
2018-02-18T18:54:11.309Z,16.98
2018-02-18T18:56:38.945Z,14.70
2018-02-18T18:59:06.576Z,16.40
2018-02-18T19:01:34.260Z,14.13
2018-02-18T19:04:02.832Z,13.88
2018-02-18T19:06:31.273Z,13.77
2018-02-18T19:08:58.925Z,14.32
2018-02-18T19:11:26.564Z,12.55
2018-02-18T19:13:54.234Z,12.27
2018-02-18T19:16:21.866Z,11.35
2018-02-18T19:18:49.501Z,11.43
2018-02-18T19:21:17.173Z,9.73
2018-02-18T19:23:45.569Z,9.73
2018-02-18T19:26:13.196Z,9.18
2018-02-18T19:28:40.850Z,9.32
2018-02-18T19:31:08.476Z,9.75
2018-02-18T19:33:36.164Z,9.68
2018-02-18T19:36:04.591Z,9.70
2018-02-18T19:38:32.221Z,10.90
2018-02-18T19:40:59.876Z,10.30
2018-02-18T19:43:27.549Z,10.88
2018-02-18T19:45:55.947Z,11.82
2018-02-18T19:48:23.580Z,10.88
2018-02-18T19:50:51.272Z,11.60
2018-02-18T19:53:18.904Z,13.48
2018-02-18T19:55:47.306Z,13.48
2018-02-18T19:58:14.960Z,15.38
2018-02-18T20:00:42.593Z,17.25
2018-02-18T20:03:10.284Z,16.90
2018-02-18T20:05:37.917Z,17.70
2018-02-18T20:08:05.561Z,14.05
2018-02-18T20:10:33.267Z,17.87
2018-02-18T20:13:00.900Z,16.80
2018-02-18T20:15:28.538Z,14.80
2018-02-18T20:17:56.292Z,13.98
2018-02-18T20:20:23.928Z,11.82
2018-02-18T20:22:51.560Z,11.88
2018-02-18T20:25:19.991Z,11.45
2018-02-18T20:27:47.641Z,12.50
2018-02-18T20:30:15.307Z,11.85
2018-02-18T20:32:42.940Z,10.25
2018-02-18T20:35:10.601Z,12.93
2018-02-18T20:37:38.234Z,11.35
2018-02-18T20:40:06.657Z,10.32
2018-02-18T20:42:34.293Z,10.75
2018-02-18T20:45:01.968Z,10.02
2018-02-18T20:47:29.609Z,12.02
2018-02-18T20:49:57.242Z,12.05
2018-02-18T20:52:24.920Z,10.63
2018-02-18T20:54:53.320Z,11.60
2018-02-18T20:57:20.957Z,11.00
2018-02-18T20:59:49.409Z,13.25
2018-02-18T21:02:17.060Z,11.00
2018-02-18T21:04:44.697Z,10.65
2018-02-18T21:07:12.365Z,10.70
2018-02-18T21:09:39.999Z,10.32
2018-02-18T21:12:07.680Z,11.45
2018-02-18T21:14:35.320Z,11.30
2018-02-18T21:17:02.970Z,18.80
2018-02-18T21:19:30.771Z,13.50
2018-02-18T21:21:58.534Z,11.15
2018-02-18T21:24:26.299Z,10.40
2018-02-18T21:26:53.976Z,9.45
2018-02-18T21:29:23.257Z,11.40
2018-02-18T21:31:51.129Z,10.52
2018-02-18T21:34:18.884Z,11.45
2018-02-18T21:36:46.568Z,13.75
2018-02-18T21:39:14.410Z,16.42
2018-02-18T21:41:42.053Z,16.98
2018-02-18T21:44:09.834Z,23.27
2018-02-18T21:46:37.489Z,15.05
2018-02-18T21:49:05.258Z,11.07
2018-02-18T21:51:33.125Z,11.60
2018-02-18T21:54:00.889Z,11.90
2018-02-18T21:56:28.568Z,12.75
2018-02-18T21:58:56.232Z,11.12
2018-02-18T22:01:24.471Z,10.27
2018-02-18T22:03:52.247Z,10.35
2018-02-18T22:06:20.040Z,11.93
2018-02-18T22:08:47.684Z,10.27
2018-02-18T22:11:15.329Z,12.25
2018-02-18T22:13:43.005Z,11.65
2018-02-18T22:16:10.636Z,11.73
2018-02-18T22:18:38.268Z,12.00
2018-02-18T22:21:05.928Z,10.55
2018-02-18T22:23:33.568Z,11.02
2018-02-18T22:26:01.988Z,11.48
2018-02-18T22:28:29.620Z,10.65
2018-02-18T22:30:58.066Z,12.15
2018-02-18T22:33:25.700Z,11.07
2018-02-18T22:35:53.344Z,11.88
2018-02-18T22:38:20.999Z,10.13
2018-02-18T22:40:48.640Z,12.18
2018-02-18T22:43:17.076Z,11.43
2018-02-18T22:45:44.712Z,12.75
2018-02-18T22:48:12.413Z,12.55
2018-02-18T22:50:40.969Z,11.73
2018-02-18T22:53:08.748Z,11.50
2018-02-18T22:55:36.380Z,10.82
2018-02-18T22:58:04.009Z,12.40
2018-02-18T23:00:31.698Z,16.15
2018-02-18T23:02:59.340Z,11.18
2018-02-18T23:05:32.882Z,37.95
2018-02-18T23:08:00.553Z,26.58
2018-02-18T23:10:28.341Z,13.60
2018-02-18T23:12:56.876Z,10.10
2018-02-18T23:15:24.564Z,11.05
2018-02-18T23:17:52.200Z,10.95
2018-02-18T23:20:19.836Z,11.43
2018-02-18T23:22:47.493Z,11.50
2018-02-18T23:25:15.160Z,12.73
2018-02-18T23:27:42.796Z,11.57
